Time;durP1;ratioP1;P1;durP2;ratioP2;P2;SDS_P1;SDS_P2;PMS_P1;PMS_P2;Temp;Humidity;BMP_temperature;BMP_pressure;BME280_temperature;BME280_humidity;BME280_pressure;Samples;Min_cycle;Max_cycle;Signal;HPM_P1;HPM_P2
2023/10/12 00:02:09;;;;;;;2.67;2.43;;;;;;;22.65;60.63;97536.94;5009908;28;20201;-28
2023/10/12 00:04:48;;;;;;;3.07;2.53;;;;;;;22.69;60.60;97549.00;5003341;28;20725;-27
2023/10/12 00:07:15;;;;;;;2.73;2.50;;;;;;;22.69;60.57;97541.31;5012438;28;20197;-26
2023/10/12 00:09:48;;;;;;;2.67;2.30;;;;;;;22.68;60.54;97539.59;5008487;28;20230;-26
2023/10/12 00:12:15;;;;;;;2.67;2.43;;;;;;;22.69;60.60;97538.75;5015219;28;20241;-26
2023/10/12 00:14:42;;;;;;;3.13;2.60;;;;;;;22.68;60.52;97542.16;5004913;28;20203;-30
2023/10/12 00:17:08;;;;;;;2.90;2.30;;;;;;;22.69;60.65;97536.19;5004537;28;20223;-28
2023/10/12 00:19:38;;;;;;;3.00;2.70;;;;;;;22.69;60.55;97536.19;5008727;28;20268;-26
2023/10/12 00:22:11;;;;;;;2.70;2.40;;;;;;;22.68;60.43;97535.31;5001024;28;20203;-26
2023/10/12 00:24:38;;;;;;;2.50;2.30;;;;;;;22.68;60.42;97540.44;5001752;28;20739;-28
2023/10/12 00:27:11;;;;;;;2.77;2.57;;;;;;;22.69;60.63;97546.44;5002605;28;20301;-26
2023/10/12 00:29:39;;;;;;;2.87;2.53;;;;;;;22.68;60.56;97537.88;5012678;28;20230;-27
2023/10/12 00:32:09;;;;;;;3.33;2.80;;;;;;;22.68;60.59;97535.31;5006607;28;20198;-26
2023/10/12 00:34:39;;;;;;;2.47;2.20;;;;;;;22.67;60.59;97540.41;5007236;28;20206;-26
2023/10/12 00:37:07;;;;;;;2.67;2.47;;;;;;;22.68;60.60;97537.03;5010614;28;20268;-26
2023/10/12 00:39:56;;;;;;;2.63;2.40;;;;;;;22.68;60.64;97532.75;5014370;28;20650;-27
2023/10/12 00:42:32;;;;;;;2.53;2.33;;;;;;;22.68;60.63;97537.88;5001017;28;20195;-27
2023/10/12 00:45:18;;;;;;;2.83;2.53;;;;;;;22.68;60.75;97530.19;5014685;28;20202;-26
2023/10/12 00:47:47;;;;;;;2.87;2.50;;;;;;;22.69;60.76;97528.50;5005539;28;20570;-27
2023/10/12 00:50:16;;;;;;;2.90;2.70;;;;;;;22.68;60.75;97527.63;5009578;28;20206;-26
2023/10/12 00:52:53;;;;;;;3.27;2.50;;;;;;;22.68;60.66;97524.22;5004853;28;20210;-26
2023/10/12 00:55:34;;;;;;;2.67;2.40;;;;;;;22.65;60.59;97519.03;5007991;28;20248;-26
2023/10/12 00:58:05;;;;;;;2.70;2.50;;;;;;;22.67;60.65;97525.91;4987664;28;20664;-28
2023/10/12 01:00:37;;;;;;;2.70;2.50;;;;;;;22.70;60.59;97532.78;5010365;28;20202;-26
2023/10/12 01:06:06;;;;;;;2.60;2.40;;;;;;;22.66;60.55;97529.31;5010106;28;20207;-29
2023/10/12 01:08:33;;;;;;;2.93;2.73;;;;;;;22.67;60.71;97533.59;4999079;28;20230;-26
2023/10/12 01:11:05;;;;;;;2.70;2.43;;;;;;;22.67;60.71;97531.03;5003330;28;20218;-26
2023/10/12 01:13:35;;;;;;;2.47;2.27;;;;;;;22.68;60.71;97529.34;5009107;28;20241;-26
2023/10/12 01:16:20;;;;;;;2.43;2.23;;;;;;;22.67;60.67;97517.34;5005794;28;20210;-35
2023/10/12 01:18:46;;;;;;;2.57;2.37;;;;;;;22.67;60.79;97523.34;5009683;28;20214;-28
2023/10/12 01:21:13;;;;;;;3.00;2.70;;;;;;;22.66;60.76;97523.31;5002953;28;20736;-26
2023/10/12 01:23:41;;;;;;;2.73;2.53;;;;;;;22.66;60.76;97523.31;5012572;28;20289;-26
2023/10/12 01:26:11;;;;;;;2.70;2.50;;;;;;;22.67;60.79;97512.22;5002095;28;20202;-26
2023/10/12 01:28:38;;;;;;;2.60;2.40;;;;;;;22.65;60.77;97511.34;5010632;28;20214;-26
2023/10/12 01:31:05;;;;;;;2.77;2.40;;;;;;;22.66;60.77;97510.50;5004115;28;20244;-29
2023/10/12 01:33:31;;;;;;;2.70;2.50;;;;;;;22.65;60.78;97509.63;5012800;28;20606;-28
2023/10/12 01:35:59;;;;;;;2.50;2.20;;;;;;;22.66;60.70;97513.06;5008239;28;20205;-26
2023/10/12 01:38:36;;;;;;;2.70;2.50;;;;;;;22.67;60.71;97514.78;5000593;28;20282;-26
2023/10/12 01:41:09;;;;;;;3.00;2.70;;;;;;;22.66;60.75;97505.38;5005089;28;20194;-28
2023/10/12 01:43:36;;;;;;;2.50;2.30;;;;;;;22.58;60.67;97500.06;5006590;28;20203;-27
2023/10/12 01:46:08;;;;;;;2.60;2.40;;;;;;;22.65;60.69;97513.91;5011595;28;20281;-26
2023/10/12 01:48:36;;;;;;;2.80;2.60;;;;;;;22.65;60.67;97517.31;5009467;28;20728;-30
2023/10/12 01:51:14;;;;;;;2.70;2.50;;;;;;;22.64;60.91;97510.47;5007105;28;20623;-31
2023/10/12 01:53:41;;;;;;;2.60;2.40;;;;;;;22.65;60.67;97517.31;5007535;28;20252;-28
2023/10/12 01:56:10;;;;;;;2.80;2.60;;;;;;;22.65;60.84;97519.88;5000887;28;20198;-28
2023/10/12 01:58:37;;;;;;;2.83;2.57;;;;;;;22.65;60.79;97521.59;5004011;28;20250;-26
2023/10/12 02:01:07;;;;;;;3.13;2.60;;;;;;;22.65;60.84;97522.44;5010048;28;20744;-28
2023/10/12 02:03:42;;;;;;;2.70;2.40;;;;;;;22.65;60.75;97526.72;5006819;28;20281;-27
2023/10/12 02:06:16;;;;;;;3.53;2.63;;;;;;;22.64;60.75;97513.03;5003886;28;20240;-26
2023/10/12 02:08:47;;;;;;;2.97;2.67;;;;;;;22.64;60.85;97513.03;5004113;28;20234;-27
2023/10/12 02:13:47;;;;;;;2.80;2.60;;;;;;;22.56;60.79;97501.72;5010711;28;20719;-26
2023/10/12 02:16:24;;;;;;;4.40;2.70;;;;;;;22.65;60.89;97524.13;5003695;28;20248;-28
2023/10/12 02:18:53;;;;;;;2.93;2.60;;;;;;;22.64;60.81;97518.16;5008213;28;20595;-31
2023/10/12 02:21:21;;;;;;;2.97;2.53;;;;;;;22.65;60.71;97519.03;5006894;28;20297;-26
2023/10/12 02:24:10;;;;;;;3.43;2.50;;;;;;;22.64;60.80;97519.81;5007325;28;20212;-27
2023/10/12 02:26:38;;;;;;;2.60;2.40;;;;;;;22.64;60.91;97518.16;5000493;28;20199;-28
2023/10/12 02:31:38;;;;;;;3.10;2.47;;;;;;;22.65;60.89;97521.59;4999179;28;20195;-29
2023/10/12 02:34:17;;;;;;;3.03;2.83;;;;;;;22.65;60.80;97522.44;4996043;28;20201;-30
2023/10/12 02:36:59;;;;;;;3.30;2.60;;;;;;;22.65;60.82;97524.13;5001383;28;20199;-26
2023/10/12 02:39:27;;;;;;;3.00;2.70;;;;;;;22.64;60.83;97523.25;5003096;28;20728;-26
2023/10/12 02:42:10;;;;;;;2.70;2.50;;;;;;;22.60;60.86;97510.34;5002266;28;20294;-35
2023/10/12 02:47:22;;;;;;;2.60;2.40;;;;;;;22.63;60.81;97513.84;5007834;28;20230;-31
2023/10/12 02:49:50;;;;;;;2.93;2.40;;;;;;;22.65;60.90;97524.13;4996885;28;20229;-26
2023/10/12 02:52:18;;;;;;;2.90;2.60;;;;;;;22.64;60.87;97520.69;5003574;28;20199;-34
2023/10/12 02:54:51;;;;;;;2.70;2.30;;;;;;;22.64;61.11;97519.81;5007801;28;20206;-26
2023/10/12 02:57:24;;;;;;;2.50;2.30;;;;;;;22.64;60.98;97519.81;5001436;28;20552;-32
2023/10/12 03:00:08;;;;;;;2.37;2.17;;;;;;;22.65;60.79;97526.72;5009374;28;20218;-26
2023/10/12 03:02:35;;;;;;;2.57;2.37;;;;;;;22.55;60.86;97506.78;5015180;28;20635;-27
2023/10/12 03:05:04;;;;;;;3.83;2.73;;;;;;;22.64;60.80;97520.69;5009361;28;20198;-26
2023/10/12 03:07:31;;;;;;;2.50;2.30;;;;;;;22.65;60.93;97521.59;5010915;28;20191;-30
2023/10/12 03:09:59;;;;;;;2.70;2.50;;;;;;;22.63;60.84;97516.41;5004719;28;20237;-26
2023/10/12 03:12:25;;;;;;;2.70;2.47;;;;;;;22.63;60.84;97513.84;5007463;28;20582;-26
2023/10/12 03:14:52;;;;;;;2.60;2.40;;;;;;;22.63;60.82;97508.75;5005895;28;20198;-26
2023/10/12 03:17:19;;;;;;;2.60;2.40;;;;;;;22.64;60.91;97513.03;5007780;28;20701;-28
2023/10/12 03:19:55;;;;;;;2.90;2.70;;;;;;;22.63;60.97;97516.41;5007447;28;20222;-27
2023/10/12 03:22:31;;;;;;;2.80;2.60;;;;;;;22.63;61.00;97516.41;5010741;28;20205;-26
2023/10/12 03:25:13;;;;;;;2.83;2.33;;;;;;;22.63;60.98;97510.41;5014164;28;20209;-30
2023/10/12 03:27:40;;;;;;;2.80;2.60;;;;;;;22.64;60.89;97512.13;5009614;28;20202;-26
2023/10/12 03:30:09;;;;;;;3.83;2.93;;;;;;;22.64;60.88;97514.69;5013413;28;20209;-28
2023/10/12 03:32:36;;;;;;;2.47;2.27;;;;;;;22.64;61.00;97519.81;5006444;28;20253;-28
2023/10/12 03:35:04;;;;;;;2.47;2.27;;;;;;;22.63;60.95;97505.28;5003574;28;20249;-28
2023/10/12 03:37:44;;;;;;;3.10;2.50;;;;;;;22.62;60.85;97514.66;5006337;28;20249;-29
2023/10/12 03:43:13;;;;;;;2.50;2.30;;;;;;;22.63;60.87;97510.41;4975458;28;20206;-26
2023/10/12 03:45:50;;;;;;;2.50;2.30;;;;;;;22.61;60.83;97507.81;5013424;28;20202;-26
2023/10/12 03:48:37;;;;;;;2.60;2.40;;;;;;;22.63;60.91;97508.75;5012685;28;20628;-30
2023/10/12 03:53:58;;;;;;;2.80;2.60;;;;;;;22.63;61.28;97505.28;5005645;28;20301;-26
2023/10/12 03:56:29;;;;;;;2.60;2.40;;;;;;;22.62;60.94;97516.38;5011033;28;20580;-28
2023/10/12 03:58:58;;;;;;;3.23;2.77;;;;;;;22.61;60.93;97507.81;5004943;28;20285;-28
2023/10/12 04:01:31;;;;;;;2.57;2.37;;;;;;;22.62;61.04;97517.22;5011415;28;20553;-26
2023/10/12 04:03:58;;;;;;;2.67;2.47;;;;;;;22.63;61.12;97510.41;5010267;28;20297;-26
2023/10/12 04:06:55;;;;;;;2.63;2.30;;;;;;;22.63;60.99;97512.97;5001424;28;20569;-28
2023/10/12 04:09:15;;;;;;;2.90;2.37;;;;;;;22.62;60.93;97506.13;5003018;28;20223;-26
2023/10/12 04:11:49;;;;;;;4.13;2.77;;;;;;;22.62;60.90;97509.53;5013191;28;20202;-29
2023/10/12 04:17:08;;;;;;;2.57;2.37;;;;;;;22.63;60.89;97510.41;5011115;28;20653;-26
2023/10/12 04:19:38;;;;;;;3.10;2.67;;;;;;;22.62;60.74;97509.53;5003603;28;20242;-26
2023/10/12 04:22:15;;;;;;;2.60;2.40;;;;;;;22.62;60.82;97514.66;5013552;28;20198;-26
2023/10/12 04:24:42;;;;;;;2.83;2.43;;;;;;;22.63;60.90;97512.97;5012791;28;20202;-29
2023/10/12 04:27:24;;;;;;;2.80;2.60;;;;;;;22.62;61.02;97513.81;5008860;28;20728;-28
2023/10/12 04:29:56;;;;;;;2.93;2.63;;;;;;;22.59;60.18;97508.63;5007675;28;20226;-27
2023/10/12 04:35:14;;;;;;;3.57;2.73;;;;;;;22.63;60.57;97505.28;5010678;28;20820;-26
2023/10/12 04:37:42;;;;;;;2.30;2.10;;;;;;;22.63;60.78;97503.63;5009411;28;20261;-27
2023/10/12 04:40:32;;;;;;;2.73;2.53;;;;;;;22.64;60.80;97496.78;5008874;28;20207;-32
2023/10/12 04:43:00;;;;;;;2.50;2.30;;;;;;;22.63;60.75;97508.75;5008418;28;20290;-26
2023/10/12 04:45:30;;;;;;;2.60;2.37;;;;;;;22.65;60.76;97519.03;5010300;28;20673;-32
2023/10/12 04:48:08;;;;;;;4.10;2.40;;;;;;;22.65;60.79;97507.06;5009253;28;20252;-36
2023/10/12 04:50:52;;;;;;;3.33;2.30;;;;;;;22.65;60.75;97513.91;4998202;28;20202;-27
2023/10/12 04:53:19;;;;;;;3.73;2.90;;;;;;;22.64;60.30;97510.47;5010105;28;20677;-33
2023/10/12 04:55:48;;;;;;;3.93;3.27;;;;;;;22.64;59.72;97514.69;5010394;28;20656;-26
2023/10/12 04:58:32;;;;;;;8.17;4.07;;;;;;;22.63;58.12;97513.84;4991364;28;20225;-28
2023/10/12 05:01:18;;;;;;;6.30;4.23;;;;;;;22.63;57.26;97510.41;5008403;28;20298;-26
2023/10/12 05:04:06;;;;;;;8.57;5.33;;;;;;;22.63;56.69;97512.97;5003025;28;20691;-26
2023/10/12 05:06:34;;;;;;;7.40;5.30;;;;;;;22.61;56.55;97509.50;5003509;28;20199;-28
2023/10/12 05:09:10;;;;;;;9.70;4.93;;;;;;;22.60;56.13;97511.22;5006198;28;20332;-26
2023/10/12 05:11:38;;;;;;;9.37;5.70;;;;;;;22.60;55.81;97505.22;5000294;28;20195;-26
2023/10/12 05:14:14;;;;;;;10.93;5.90;;;;;;;22.60;55.51;97510.34;4997008;28;20207;-26
2023/10/12 05:16:42;;;;;;;9.03;6.43;;;;;;;22.58;55.63;97512.88;5002215;28;20202;-27
2023/10/12 05:19:10;;;;;;;9.07;6.03;;;;;;;22.59;56.34;97516.31;5013645;28;20304;-28
2023/10/12 05:21:38;;;;;;;7.43;5.20;;;;;;;22.58;56.72;97515.44;5010828;28;20202;-26
2023/10/12 05:24:05;;;;;;;9.10;5.90;;;;;;;22.58;56.99;97510.31;5006656;28;20230;-26
2023/10/12 05:26:32;;;;;;;9.33;5.43;;;;;;;22.57;57.02;97518.81;5013099;28;20230;-26
2023/10/12 05:29:17;;;;;;;10.73;6.23;;;;;;;22.58;56.69;97524.78;5003811;28;20222;-31
2023/10/12 05:31:57;;;;;;;11.77;5.83;;;;;;;22.57;56.35;97531.63;5010221;28;20202;-26
2023/10/12 05:34:45;;;;;;;9.47;6.03;;;;;;;22.58;56.69;97532.47;5011251;28;20568;-26
2023/10/12 05:39:50;;;;;;;8.17;5.83;;;;;;;22.58;56.33;97532.47;5010068;28;20313;-32
2023/10/12 05:42:25;;;;;;;13.90;6.23;;;;;;;22.59;56.46;97544.47;5001531;28;20229;-27
2023/10/12 05:44:53;;;;;;;10.40;5.80;;;;;;;22.59;56.63;97552.16;5003111;28;20226;-27
2023/10/12 05:47:29;;;;;;;11.57;6.27;;;;;;;22.59;56.80;97559.84;5012261;28;20662;-27
2023/10/12 05:49:58;;;;;;;10.57;5.77;;;;;;;22.60;57.10;97569.25;5007778;28;20653;-27
2023/10/12 05:52:25;;;;;;;11.77;5.53;;;;;;;22.59;57.17;97570.09;5009794;28;20198;-28
2023/10/12 05:54:57;;;;;;;10.53;6.20;;;;;;;22.58;56.45;97576.91;5001811;28;20203;-27
2023/10/12 05:57:29;;;;;;;16.20;5.83;;;;;;;22.58;56.30;97573.47;5008848;28;20202;-26
2023/10/12 05:59:58;;;;;;;14.33;6.40;;;;;;;22.57;56.78;97581.97;5005250;28;20257;-26
2023/10/12 06:02:28;;;;;;;15.27;6.23;;;;;;;22.56;57.01;97570.88;5004757;28;20242;-27
2023/10/12 06:04:56;;;;;;;12.60;6.03;;;;;;;22.56;57.18;97567.47;5004658;28;20688;-26
2023/10/12 06:07:24;;;;;;;8.27;5.97;;;;;;;22.57;57.38;97579.44;5007697;28;20213;-26
2023/10/12 06:09:53;;;;;;;11.20;5.97;;;;;;;22.56;57.52;97567.47;5012048;28;20292;-28
2023/10/12 06:12:24;;;;;;;14.17;6.17;;;;;;;22.56;57.63;97578.53;5001271;28;20206;-26
2023/10/12 06:14:54;;;;;;;13.47;5.57;;;;;;;22.57;57.87;97566.63;5005571;28;20206;-26
2023/10/12 06:17:39;;;;;;;9.30;5.63;;;;;;;22.58;58.00;97570.91;5009008;28;20206;-26
2023/10/12 06:20:15;;;;;;;12.73;6.17;;;;;;;22.58;58.09;97584.59;5008119;28;20218;-26
2023/10/12 06:22:41;;;;;;;6.60;5.00;;;;;;;22.59;58.21;97575.22;5010032;28;20206;-26
2023/10/12 06:25:11;;;;;;;10.43;5.50;;;;;;;22.58;58.39;97578.59;5002454;28;20577;-26
2023/10/12 06:27:38;;;;;;;14.37;4.80;;;;;;;22.58;58.37;97594.84;5009791;28;20206;-26
2023/10/12 06:30:16;;;;;;;7.67;4.97;;;;;;;22.58;58.38;97594.84;5007299;28;20207;-26
2023/10/12 06:32:47;;;;;;;6.60;4.90;;;;;;;22.59;58.35;97600.84;5010099;28;20629;-28
2023/10/12 06:35:23;;;;;;;8.97;5.27;;;;;;;22.59;58.35;97604.25;5006248;28;20311;-27
2023/10/12 06:45:47;;;;;;;7.37;4.97;;;;;;;22.56;58.75;97611.84;5009134;28;20199;-28
2023/10/12 06:51:06;;;;;;;9.83;6.10;;;;;;;22.59;57.72;97618.75;5003477;28;20241;-26
2023/10/12 06:53:36;;;;;;;8.87;5.97;;;;;;;22.58;57.93;97612.75;5011119;28;20209;-28
2023/10/12 06:58:43;;;;;;;7.83;5.00;;;;;;;22.59;58.24;97619.63;5005883;28;20232;-28
2023/10/12 07:01:19;;;;;;;10.50;5.67;;;;;;;22.59;58.36;97622.16;5006167;28;20206;-26
2023/10/12 07:03:49;;;;;;;11.57;5.70;;;;;;;22.57;58.44;97622.97;5000994;28;20229;-27
2023/10/12 07:06:16;;;;;;;6.43;5.00;;;;;;;22.58;58.61;97623.00;5011220;28;20257;-26
2023/10/12 07:08:45;;;;;;;7.67;5.40;;;;;;;22.59;58.50;97626.44;5003967;28;20222;-27
2023/10/12 07:11:20;;;;;;;10.27;5.30;;;;;;;22.58;58.57;97630.69;5005491;28;20241;-27
2023/10/12 07:13:47;;;;;;;9.03;4.77;;;;;;;22.59;58.61;97636.69;5003913;28;20661;-28
2023/10/12 07:16:16;;;;;;;6.50;5.10;;;;;;;22.58;58.75;97634.94;5012034;28;20202;-27
2023/10/12 07:18:43;;;;;;;7.93;4.97;;;;;;;22.59;58.72;97640.09;5005468;28;20219;-35
2023/10/12 07:21:23;;;;;;;9.07;4.87;;;;;;;22.58;59.03;97633.25;5009292;28;20198;-26
2023/10/12 07:23:52;;;;;;;6.77;4.73;;;;;;;22.60;58.93;97630.72;5011293;28;20202;-29
2023/10/12 07:26:19;;;;;;;8.60;5.10;;;;;;;22.59;59.08;97636.69;5007299;28;20265;-26
2023/10/12 07:28:49;;;;;;;8.10;5.27;;;;;;;22.59;58.96;97634.97;5003368;28;20215;-27
2023/10/12 07:41:53;;;;;;;6.90;4.20;;;;;;;22.62;59.14;97642.75;5022719;28;20253;-26
2023/10/12 07:44:24;;;;;;;6.97;4.07;;;;;;;22.62;59.15;97644.47;5007265;28;20198;-28
2023/10/12 07:46:50;;;;;;;7.33;4.00;;;;;;;22.62;59.20;97645.31;5010119;28;20199;-26
2023/10/12 07:52:22;;;;;;;8.43;4.60;;;;;;;22.62;59.22;97640.19;5010987;28;20276;-26
2023/10/12 07:57:19;;;;;;;6.37;4.50;;;;;;;22.61;59.25;97640.16;5006462;28;20207;-28
2023/10/12 08:05:16;;;;;;;7.63;4.70;;;;;;;22.61;59.50;97663.19;4972768;28;20617;-26
2023/10/12 08:08:08;;;;;;;6.53;4.50;;;;;;;22.61;59.42;97660.63;4957869;28;20675;-28
2023/10/12 08:23:58;;;;;;;5.57;4.10;;;;;;;22.60;59.68;97638.41;4972061;28;20239;-27
2023/10/12 08:44:49;;;;;;;6.10;4.17;;;;;;;22.61;59.85;97629.91;4964690;28;20683;-26
2023/10/12 08:47:40;;;;;;;5.03;4.10;;;;;;;22.61;59.84;97635.91;4967905;28;20211;-26
2023/10/12 08:52:36;;;;;;;4.80;3.67;;;;;;;22.62;59.92;97629.09;4973748;28;20225;-26
2023/10/12 08:55:12;;;;;;;6.70;4.10;;;;;;;22.62;59.98;97619.69;4973459;28;20207;-34
2023/10/12 08:58:01;;;;;;;6.53;4.40;;;;;;;22.62;60.00;97617.13;4969572;28;20916;-26
2023/10/12 09:03:06;;;;;;;5.63;3.60;;;;;;;22.62;59.95;97627.38;4967917;28;20605;-26
2023/10/12 09:05:33;;;;;;;6.80;4.40;;;;;;;22.63;59.98;97630.81;4975608;28;20282;-29
2023/10/12 09:10:51;;;;;;;6.93;4.10;;;;;;;22.61;59.77;97635.91;4974846;28;20235;-28
2023/10/12 09:13:18;;;;;;;5.50;3.90;;;;;;;22.57;59.86;97628.97;4973222;28;20214;-26
2023/10/12 09:15:48;;;;;;;5.23;4.00;;;;;;;22.61;59.99;97643.59;4974222;28;20199;-27
2023/10/12 09:18:18;;;;;;;5.73;3.67;;;;;;;22.62;60.05;97654.72;4970208;28;20338;-26
2023/10/12 09:23:52;;;;;;;4.57;3.87;;;;;;;22.61;59.97;97646.16;4956615;28;20204;-26
2023/10/12 09:26:37;;;;;;;6.60;3.67;;;;;;;22.62;59.91;97647.88;4970146;28;20626;-27
2023/10/12 09:36:43;;;;;;;5.13;3.60;;;;;;;22.63;59.95;97641.06;4964119;28;20200;-31
2023/10/12 09:39:14;;;;;;;5.67;3.60;;;;;;;22.63;59.88;97647.06;4970396;28;20220;-29
2023/10/12 09:41:42;;;;;;;7.57;3.87;;;;;;;22.56;59.85;97628.94;4974666;28;20215;-26
2023/10/12 09:44:12;;;;;;;5.50;3.57;;;;;;;22.63;60.04;97644.50;4969452;28;20266;-28
2023/10/12 09:46:46;;;;;;;6.60;3.90;;;;;;;22.62;59.93;97640.19;4974066;28;20206;-32
2023/10/12 09:49:24;;;;;;;5.47;4.30;;;;;;;22.63;59.89;97636.81;4974261;28;20268;-28
2023/10/12 09:51:56;;;;;;;5.20;3.80;;;;;;;22.64;59.99;97635.09;4974169;28;20207;-26
2023/10/12 09:54:30;;;;;;;4.63;3.50;;;;;;;22.63;60.04;97635.94;4969292;28;20200;-32
2023/10/12 09:57:04;;;;;;;5.90;3.77;;;;;;;22.64;59.95;97645.34;4971761;28;20637;-27
2023/10/12 09:59:38;;;;;;;6.27;4.23;;;;;;;22.63;60.09;97649.63;4969894;28;20313;-26
2023/10/12 10:05:01;;;;;;;6.77;4.40;;;;;;;22.64;60.20;97650.47;4968639;28;20254;-26
2023/10/12 10:07:32;;;;;;;7.20;4.50;;;;;;;22.63;60.05;97654.75;4958192;28;20203;-27
2023/10/12 10:10:00;;;;;;;5.67;3.90;;;;;;;22.63;60.27;97649.63;4972776;28;20690;-26
2023/10/12 10:12:35;;;;;;;9.17;4.17;;;;;;;22.63;60.08;97652.19;4969788;28;20263;-27
2023/10/12 10:15:10;;;;;;;6.87;4.27;;;;;;;22.63;60.07;97652.19;4974175;28;20621;-26
2023/10/12 10:17:47;;;;;;;7.97;4.63;;;;;;;22.64;60.03;97645.34;4974042;28;20238;-26
2023/10/12 10:22:56;;;;;;;6.87;4.20;;;;;;;22.63;60.14;97649.63;4971120;28;20269;-27
2023/10/12 10:25:35;;;;;;;8.57;4.30;;;;;;;22.63;60.06;97638.50;4973760;28;20211;-26
2023/10/12 10:28:09;;;;;;;8.10;4.20;;;;;;;22.63;60.03;97638.50;4970506;28;20231;-26
2023/10/12 10:30:40;;;;;;;7.93;4.23;;;;;;;22.63;60.08;97626.56;4969737;28;20222;-26
2023/10/12 10:33:13;;;;;;;7.57;4.57;;;;;;;22.64;60.16;97624.84;4968166;28;20196;-27
2023/10/12 10:36:00;;;;;;;6.67;4.27;;;;;;;22.63;60.09;97620.56;4970739;28;20203;-34
2023/10/12 10:38:34;;;;;;;9.80;4.87;;;;;;;22.64;60.14;97619.72;4962438;28;20311;-28
2023/10/12 10:41:05;;;;;;;8.83;4.90;;;;;;;22.64;60.15;97618.06;4973602;28;20231;-26
2023/10/12 10:43:37;;;;;;;10.37;4.43;;;;;;;22.63;60.03;97618.00;4973831;28;20212;-31
2023/10/12 10:46:10;;;;;;;6.47;4.37;;;;;;;22.64;60.11;97609.47;4973583;28;20238;-26
2023/10/12 10:48:38;;;;;;;8.70;4.50;;;;;;;22.65;60.11;97614.66;4969680;28;20234;-27
2023/10/12 10:51:32;;;;;;;7.53;4.60;;;;;;;22.65;60.07;97612.09;4963774;28;20283;-26
2023/10/12 10:53:58;;;;;;;7.27;4.60;;;;;;;22.66;60.14;97610.41;4972829;28;20230;-29
2023/10/12 10:56:35;;;;;;;11.17;4.63;;;;;;;22.65;60.07;97601.00;4972636;28;20199;-27
2023/10/12 10:59:12;;;;;;;7.73;4.33;;;;;;;22.64;60.00;97594.13;4972845;28;20223;-26
2023/10/12 11:01:42;;;;;;;9.13;4.73;;;;;;;22.64;60.13;97591.56;4973603;28;20211;-30
2023/10/12 11:04:36;;;;;;;8.60;4.37;;;;;;;22.64;60.64;97595.00;4963422;28;20194;-26
2023/10/12 11:07:03;;;;;;;8.97;5.10;;;;;;;22.60;60.08;97580.38;4973507;28;20250;-26
2023/10/12 11:09:54;;;;;;;6.30;4.10;;;;;;;22.65;60.06;97590.75;4973749;28;20314;-27
2023/10/12 11:12:20;;;;;;;8.20;4.27;;;;;;;22.64;60.03;97587.31;4964529;28;20208;-26
2023/10/12 11:17:40;;;;;;;8.80;4.90;;;;;;;22.63;60.13;97583.03;4977182;28;20674;-29
2023/10/12 11:20:26;;;;;;;7.57;4.43;;;;;;;22.63;60.14;97577.91;4975763;28;20219;-26
2023/10/12 11:22:53;;;;;;;8.30;4.73;;;;;;;22.64;60.17;97583.88;4977414;28;20208;-26
2023/10/12 11:25:20;;;;;;;7.20;4.50;;;;;;;22.64;60.20;97587.31;4976670;28;20231;-26
2023/10/12 11:27:46;;;;;;;9.73;4.93;;;;;;;22.63;60.17;97577.91;4976828;28;20746;-29
2023/10/12 11:30:19;;;;;;;8.03;4.37;;;;;;;22.64;60.25;97581.31;4976626;28;20287;-26
2023/10/12 11:32:58;;;;;;;8.83;5.07;;;;;;;22.61;60.21;97576.09;4976036;28;20714;-33
2023/10/12 11:35:40;;;;;;;7.87;4.40;;;;;;;22.64;60.20;97591.56;4977083;28;20206;-30
2023/10/12 11:38:20;;;;;;;8.20;4.80;;;;;;;22.61;60.14;97589.78;4975753;28;20237;-26
2023/10/12 11:40:55;;;;;;;7.40;4.20;;;;;;;22.64;60.25;97599.25;4971622;28;20231;-32
2023/10/12 11:43:26;;;;;;;6.57;4.47;;;;;;;22.63;60.22;97598.41;4968685;28;20278;-30
2023/10/12 11:46:01;;;;;;;6.97;4.37;;;;;;;22.63;60.14;97593.28;4975896;28;20210;-26
2023/10/12 11:48:28;;;;;;;9.13;5.00;;;;;;;22.64;60.17;97586.44;4965995;28;20226;-31
2023/10/12 11:50:56;;;;;;;7.70;4.27;;;;;;;22.63;60.13;97583.03;4976366;28;20514;-26
2023/10/12 11:53:24;;;;;;;10.27;5.30;;;;;;;22.63;60.27;97587.28;4976764;28;20204;-26
2023/10/12 11:56:22;;;;;;;8.23;4.60;;;;;;;22.63;60.25;97579.59;4976292;28;20214;-26
2023/10/12 11:58:55;;;;;;;7.73;4.37;;;;;;;22.62;60.26;97578.69;4975902;28;20781;-28
2023/10/12 12:01:22;;;;;;;7.40;4.87;;;;;;;22.63;60.32;97574.47;4969806;28;20223;-28
2023/10/12 12:03:53;;;;;;;7.10;4.07;;;;;;;22.62;60.39;97565.91;4976337;28;20207;-29
2023/10/12 12:06:25;;;;;;;8.60;4.87;;;;;;;22.61;60.32;97564.19;4976614;28;20212;-31
2023/10/12 12:08:56;;;;;;;9.23;5.10;;;;;;;22.64;60.30;97565.94;4975706;28;20242;-26
2023/10/12 12:11:31;;;;;;;7.30;4.03;;;;;;;22.64;60.40;97571.06;4973163;28;20191;-26
2023/10/12 12:13:57;;;;;;;8.33;4.80;;;;;;;22.62;60.40;97565.91;4976479;28;20203;-26
2023/10/12 12:16:24;;;;;;;7.30;4.70;;;;;;;22.63;60.42;97564.22;4975162;28;20211;-26
2023/10/12 12:18:54;;;;;;;8.37;4.47;;;;;;;22.64;60.30;97563.38;4973231;28;20796;-30
2023/10/12 12:21:30;;;;;;;8.00;4.60;;;;;;;22.61;60.30;97561.63;4969717;28;20699;-31
2023/10/12 12:24:04;;;;;;;9.10;4.70;;;;;;;22.63;60.31;97565.09;4965734;28;20293;-26
2023/10/12 12:26:33;;;;;;;10.20;4.83;;;;;;;22.63;60.52;97562.53;4976984;28;20200;-29
2023/10/12 12:29:04;;;;;;;8.10;4.50;;;;;;;22.64;60.43;97569.38;4967798;28;20215;-29
2023/10/12 12:31:32;;;;;;;8.17;4.50;;;;;;;22.63;60.13;97559.97;4965444;28;20196;-26
2023/10/12 12:33:59;;;;;;;6.40;4.57;;;;;;;22.64;60.32;97564.25;4973479;28;20204;-26
2023/10/12 12:36:26;;;;;;;8.07;5.07;;;;;;;22.64;60.31;97551.44;4972952;28;20292;-27
2023/10/12 12:38:57;;;;;;;7.17;4.33;;;;;;;22.65;60.42;97552.31;4973282;28;20270;-28
2023/10/12 12:41:24;;;;;;;8.67;4.70;;;;;;;22.64;60.41;97543.75;4973018;28;20238;-30
2023/10/12 12:43:51;;;;;;;7.87;4.60;;;;;;;22.64;60.29;97541.19;4973057;28;20697;-26
2023/10/12 12:46:19;;;;;;;8.67;5.30;;;;;;;22.64;60.41;97546.31;4966311;28;20266;-29
2023/10/12 12:48:48;;;;;;;8.43;4.23;;;;;;;22.65;60.39;97539.50;4971785;28;20219;-26
2023/10/12 12:51:16;;;;;;;8.33;4.43;;;;;;;22.56;60.52;97532.44;4987420;28;20191;-27
2023/10/12 12:53:46;;;;;;;7.37;4.57;;;;;;;22.65;60.43;97547.19;4975346;28;20282;-29
2023/10/12 12:56:14;;;;;;;6.63;4.27;;;;;;;22.60;60.35;97546.22;4974490;28;20203;-26
2023/10/12 12:58:46;;;;;;;6.90;4.70;;;;;;;22.67;60.40;97558.31;4974850;28;20249;-27
2023/10/12 13:01:19;;;;;;;7.70;4.63;;;;;;;22.65;60.39;97542.91;4971259;28;20615;-27
2023/10/12 13:03:45;;;;;;;7.60;4.57;;;;;;;22.65;60.39;97549.75;4974634;28;20200;-26
2023/10/12 13:06:15;;;;;;;8.07;4.43;;;;;;;22.67;60.75;97548.09;4974311;28;20207;-29
2023/10/12 13:08:41;;;;;;;8.20;4.70;;;;;;;22.68;60.57;97553.25;4974674;28;20254;-26
2023/10/12 13:11:09;;;;;;;9.70;4.73;;;;;;;22.67;60.12;97556.66;4975253;28;20207;-26
2023/10/12 13:13:39;;;;;;;9.03;4.87;;;;;;;22.67;60.57;97550.66;4975238;28;20199;-29
2023/10/12 13:16:11;;;;;;;8.40;4.83;;;;;;;22.67;60.46;97554.09;4972898;28;20245;-26
2023/10/12 13:18:46;;;;;;;8.67;4.63;;;;;;;22.67;60.50;97564.34;4968865;28;20223;-34
2023/10/12 13:21:14;;;;;;;8.60;4.73;;;;;;;22.68;60.40;97566.06;4974309;28;20286;-26
2023/10/12 13:23:44;;;;;;;8.87;4.70;;;;;;;22.66;60.39;97564.28;4974580;28;20211;-30
2023/10/12 13:26:12;;;;;;;9.53;4.90;;;;;;;22.67;60.43;97568.56;4973831;28;20235;-26
2023/10/12 13:28:41;;;;;;;10.27;4.87;;;;;;;22.68;60.53;97567.78;4975022;28;20238;-29
2023/10/12 13:31:12;;;;;;;7.80;5.00;;;;;;;22.66;60.51;97562.59;4971994;28;20214;-29
2023/10/12 13:33:40;;;;;;;7.30;4.63;;;;;;;22.67;60.61;97569.47;4971367;28;20219;-26
2023/10/12 13:36:08;;;;;;;8.03;4.90;;;;;;;22.66;60.50;97569.41;4973895;28;20200;-26
2023/10/12 13:38:37;;;;;;;8.97;4.57;;;;;;;22.65;60.63;97565.97;4973839;28;20659;-26
2023/10/12 13:41:03;;;;;;;8.83;4.83;;;;;;;22.66;60.52;97561.72;4974525;28;20227;-27
2023/10/12 13:43:30;;;;;;;6.93;4.60;;;;;;;22.65;60.42;97550.59;4974553;28;20196;-28
2023/10/12 13:45:58;;;;;;;8.10;4.53;;;;;;;22.65;60.48;97550.59;4973789;28;20207;-26
2023/10/12 13:48:27;;;;;;;6.73;4.70;;;;;;;22.66;60.46;97548.91;4972803;28;20247;-26
2023/10/12 13:51:01;;;;;;;7.50;4.07;;;;;;;22.67;60.53;97568.56;4966002;28;20658;-26
2023/10/12 13:53:28;;;;;;;7.00;4.33;;;;;;;22.66;60.52;97561.72;4971959;28;20206;-26